ROMMA est une association bénévole à but non lucratif. Votre soutien est indispensable : ADHERER à ROMMA ou FAIRE un DON

Le Versoud - (38, Isère)

Vallée du Grésivaudan (220 m)   Longitude: 05° 51' 44" E   Latitude: 45° 13' 06" N Station partenaire n°6
 

Détail journalier du     <<     >>

Température Humidité Pression Vent Dir Rafale Dir. rafale Ensol.
Heure (°C) (%) (hPa) (km/h) (km/h) (min)
01:00 13.792101500---0
02:00 13.293101500---0
03:00 12.693101502E0
04:00 11.895101500---0
05:00 11.695101400---0
06:00 11.395101300---0
07:00 10.996101200---0
08:00 10.396101200---0
09:00 10.996101202E0
10:00 11.9951012010S0
11:00 13.491101202S0
12:00 15.781101002S30
13:00 16.778100902S10
14:00 17.277100708S15
15:00 17.480100708SSO0
16:00 17.281100805SSO0
17:00 17.680100802SSO0
18:00 16.786100805SSO0
19:00 18.47110088S35SSO0
20:00 16.084101110S42ESE0
21:00 14.6921011015SE0
22:00 14.295101002N0
23:00 14.195101205N0
minuit 14.195101302NNE0

Graphique du 23-10-2019

 

Serveur OMMA